Time;durP1;ratioP1;P1;durP2;ratioP2;P2;SDS_P1;SDS_P2;PMS_P1;PMS_P2;Temp;Humidity;BMP_temperature;BMP_pressure;BME280_temperature;BME280_humidity;BME280_pressure;Samples;Min_cycle;Max_cycle;Signal;HPM_P1;HPM_P2
2022/04/06 00:01:40;;;;;;;13.02;8.23;;;;;;;8.85;57.37;99316.41;5053452;28;20029;-48
2022/04/06 00:04:05;;;;;;;13.02;8.45;;;;;;;8.73;57.65;99318.84;5053293;28;20029;-47
2022/04/06 00:06:31;;;;;;;12.27;7.72;;;;;;;8.83;57.37;99300.69;5052993;28;20048;-49
2022/04/06 00:08:56;;;;;;;15.75;8.25;;;;;;;8.86;57.60;99316.22;5053260;28;20196;-48
2022/04/06 00:11:22;;;;;;;24.83;9.30;;;;;;;8.84;57.48;99312.94;5053482;28;20108;-48
2022/04/06 00:13:48;;;;;;;14.20;8.15;;;;;;;8.77;57.98;99318.22;5053031;28;20469;-48
2022/04/06 00:16:14;;;;;;;13.75;7.90;;;;;;;8.73;58.06;99316.19;5052794;28;20036;-48
2022/04/06 00:18:39;;;;;;;16.75;8.65;;;;;;;8.55;57.67;99304.31;5053130;28;20348;-47
2022/04/06 00:21:05;;;;;;;18.10;8.10;;;;;;;8.59;58.21;99321.47;5053289;28;20033;-47
2022/04/06 00:23:31;;;;;;;17.15;7.82;;;;;;;8.58;58.30;99327.78;5053052;28;20155;-47
2022/04/06 00:25:56;;;;;;;19.02;8.30;;;;;;;8.30;59.02;99322.59;5053002;28;20028;-47
2022/04/06 00:28:22;;;;;;;12.23;8.30;;;;;;;8.17;59.75;99323.34;5053214;28;20025;-52
2022/04/06 00:30:47;;;;;;;12.20;7.82;;;;;;;8.20;60.28;99317.63;5053001;28;20025;-47
2022/04/06 00:33:13;;;;;;;17.77;7.93;;;;;;;8.11;61.04;99321.50;5053266;28;20045;-47
2022/04/06 00:35:38;;;;;;;18.85;7.85;;;;;;;8.15;60.73;99327.22;5053002;28;20033;-47
2022/04/06 00:38:06;;;;;;;14.88;7.93;;;;;;;8.03;60.96;99317.19;5052471;28;20425;-50
2022/04/06 00:40:33;;;;;;;12.82;8.20;;;;;;;8.07;60.69;99332.69;5053282;28;20029;-48
2022/04/06 00:42:59;;;;;;;18.55;8.70;;;;;;;8.17;60.32;99319.88;5052739;28;20033;-47
2022/04/06 00:45:25;;;;;;;13.52;8.52;;;;;;;8.09;60.13;99330.66;5052612;28;20107;-47
2022/04/06 00:47:52;;;;;;;15.55;9.13;;;;;;;7.99;61.12;99326.53;5052128;28;20107;-48
2022/04/06 00:50:20;;;;;;;15.50;8.20;;;;;;;7.94;61.30;99325.47;5052646;28;20677;-49
2022/04/06 00:52:47;;;;;;;16.25;8.65;;;;;;;7.83;61.69;99317.06;5052948;28;20098;-48
2022/04/06 00:55:13;;;;;;;15.52;8.70;;;;;;;8.02;61.51;99320.84;5052839;28;20028;-47
2022/04/06 00:57:38;;;;;;;14.82;7.95;;;;;;;8.14;60.63;99325.56;5052486;28;20115;-48
2022/04/06 01:00:06;;;;;;;13.65;8.65;;;;;;;8.19;59.93;99331.91;5052402;28;20025;-47
2022/04/06 01:02:32;;;;;;;11.40;7.85;;;;;;;8.15;59.98;99330.69;5052577;28;20084;-48
2022/04/06 01:04:57;;;;;;;13.77;8.45;;;;;;;8.10;60.39;99334.94;5052401;28;20039;-47
2022/04/06 01:07:23;;;;;;;14.65;9.00;;;;;;;8.18;60.44;99334.75;5052272;28;20382;-49
2022/04/06 01:09:49;;;;;;;13.95;8.30;;;;;;;7.98;61.08;99342.63;5052444;28;20060;-49
2022/04/06 01:12:15;;;;;;;14.88;8.18;;;;;;;8.02;61.17;99339.38;5052411;28;20025;-49
2022/04/06 01:14:40;;;;;;;15.02;9.07;;;;;;;8.03;60.98;99338.38;5052000;28;20032;-49
2022/04/06 01:17:08;;;;;;;12.95;8.45;;;;;;;7.96;61.25;99334.88;5052083;28;20032;-49
2022/04/06 01:19:34;;;;;;;14.70;9.23;;;;;;;7.83;61.46;99334.81;5051553;28;20040;-47
2022/04/06 01:22:01;;;;;;;14.85;8.90;;;;;;;7.97;61.06;99331.19;5052162;28;20036;-49
2022/04/06 01:24:27;;;;;;;14.27;8.98;;;;;;;7.87;61.25;99337.88;5052130;28;20067;-47
2022/04/06 01:26:53;;;;;;;18.50;9.38;;;;;;;7.85;60.92;99340.72;5052200;28;20473;-48
2022/04/06 01:29:19;;;;;;;15.73;9.27;;;;;;;7.73;61.38;99337.81;5051923;28;20112;-47
2022/04/06 01:31:46;;;;;;;16.58;9.45;;;;;;;7.79;61.82;99331.72;5051450;28;20456;-48
2022/04/06 01:34:11;;;;;;;16.67;9.20;;;;;;;7.56;61.69;99299.41;5051734;28;20500;-48
2022/04/06 01:36:37;;;;;;;17.35;9.05;;;;;;;7.90;61.33;99340.97;5051581;28;20052;-48
2022/04/06 01:39:02;;;;;;;19.33;9.20;;;;;;;7.95;60.82;99349.13;5051777;28;20028;-48
2022/04/06 01:41:32;;;;;;;13.52;8.48;;;;;;;7.74;61.51;99350.03;5050991;28;20485;-48
2022/04/06 01:43:58;;;;;;;17.30;9.70;;;;;;;7.75;61.49;99350.84;5051277;28;20033;-48
2022/04/06 01:46:23;;;;;;;18.48;10.45;;;;;;;7.57;62.41;99357.44;5050928;28;20017;-48
2022/04/06 01:54:17;;;;;;;16.08;9.38;;;;;;;7.23;63.53;99355.56;5050919;28;20099;-50
2022/04/06 01:56:42;;;;;;;18.23;10.27;;;;;;;7.35;63.52;99354.06;5051045;28;20317;-51
2022/04/06 01:59:08;;;;;;;25.15;10.60;;;;;;;7.41;63.16;99365.72;5050936;28;20104;-47
2022/04/06 02:01:36;;;;;;;16.38;9.88;;;;;;;7.49;63.48;99362.91;5050851;28;20031;-50
2022/04/06 02:04:06;;;;;;;16.85;9.20;;;;;;;7.57;62.56;99346.88;5050238;28;20031;-48
2022/04/06 02:06:32;;;;;;;16.63;9.88;;;;;;;7.56;62.82;99360.31;5049404;28;20049;-50
2022/04/06 02:08:57;;;;;;;17.90;9.88;;;;;;;7.63;62.54;99359.34;5050602;28;20029;-47
2022/04/06 02:11:23;;;;;;;14.23;9.20;;;;;;;7.72;61.87;99356.53;5050411;28;20086;-47
2022/04/06 02:13:48;;;;;;;14.32;8.98;;;;;;;7.59;61.93;99355.44;5049243;28;20035;-47
2022/04/06 02:16:14;;;;;;;13.98;9.02;;;;;;;7.67;62.32;99364.25;5049329;28;20475;-48
2022/04/06 02:18:39;;;;;;;14.57;9.52;;;;;;;7.52;62.59;99359.88;5049668;28;20021;-48
2022/04/06 02:21:05;;;;;;;17.52;9.73;;;;;;;7.61;61.89;99365.84;5050539;28;20063;-48
2022/04/06 02:23:30;;;;;;;32.53;11.82;;;;;;;7.12;63.49;99364.88;5050202;28;20068;-47
2022/04/06 02:25:55;;;;;;;20.67;11.30;;;;;;;6.93;64.77;99368.13;5050225;28;20032;-47
2022/04/06 02:28:21;;;;;;;17.05;10.10;;;;;;;7.14;63.51;99356.72;5050360;28;20052;-48
2022/04/06 02:30:46;;;;;;;17.30;10.73;;;;;;;7.20;63.44;99363.91;5050138;28;20071;-49
2022/04/06 02:33:12;;;;;;;19.55;11.50;;;;;;;7.03;64.26;99374.75;5050341;28;20037;-48
2022/04/06 02:35:37;;;;;;;18.15;10.55;;;;;;;7.03;64.68;99380.03;5049909;28;20043;-48
2022/04/06 02:38:03;;;;;;;16.88;10.45;;;;;;;6.87;65.03;99374.97;5050197;28;20044;-48
2022/04/06 02:40:30;;;;;;;21.75;11.00;;;;;;;6.93;64.69;99378.69;5049902;28;20035;-47
2022/04/06 02:42:55;;;;;;;16.33;10.10;;;;;;;6.99;64.72;99375.31;5050098;28;20038;-48
2022/04/06 02:45:21;;;;;;;16.92;10.15;;;;;;;6.91;64.70;99373.63;5049516;28;20107;-47
2022/04/06 02:47:47;;;;;;;16.98;10.68;;;;;;;6.80;65.19;99382.88;5050058;28;20025;-48
2022/04/06 02:50:12;;;;;;;21.88;10.73;;;;;;;6.79;65.45;99381.22;5050205;28;20021;-47
2022/04/06 02:52:38;;;;;;;21.15;10.13;;;;;;;6.77;65.65;99396.44;5049868;28;20439;-48
2022/04/06 02:55:03;;;;;;;28.13;11.70;;;;;;;6.71;65.41;99388.47;5050066;28;20101;-47
2022/04/06 02:57:29;;;;;;;23.40;11.23;;;;;;;6.84;65.53;99385.97;5049926;28;20032;-47
2022/04/06 02:59:54;;;;;;;22.60;11.45;;;;;;;6.82;65.07;99394.06;5050094;28;20488;-48
2022/04/06 03:02:20;;;;;;;24.83;11.25;;;;;;;6.75;65.46;99389.72;5049616;28;20527;-47
2022/04/06 03:04:45;;;;;;;29.83;12.50;;;;;;;6.51;66.60;99391.72;5049302;28;20025;-47
2022/04/06 03:07:11;;;;;;;21.30;11.68;;;;;;;6.51;66.69;99388.22;5049325;28;20056;-48
2022/04/06 03:09:36;;;;;;;20.40;11.43;;;;;;;6.45;67.72;99392.41;5049922;28;20103;-48
2022/04/06 03:12:05;;;;;;;23.30;12.20;;;;;;;6.39;67.22;99393.97;5049739;28;20017;-50
2022/04/06 03:14:30;;;;;;;24.10;11.32;;;;;;;6.53;66.68;99397.63;5050070;28;20025;-47
2022/04/06 03:16:56;;;;;;;19.88;11.38;;;;;;;6.52;67.42;99395.16;5049476;28;20029;-50
2022/04/06 03:19:21;;;;;;;19.45;10.93;;;;;;;6.59;66.80;99399.53;5049791;28;20035;-48
2022/04/06 03:21:47;;;;;;;23.92;10.75;;;;;;;6.46;67.35;99404.66;5049558;28;20029;-48
2022/04/06 03:24:12;;;;;;;19.27;10.95;;;;;;;6.49;67.29;99398.16;5049786;28;20361;-47
2022/04/06 03:26:38;;;;;;;22.05;10.88;;;;;;;6.46;67.37;99399.38;5053182;28;20465;-48
2022/04/06 03:29:03;;;;;;;23.42;10.68;;;;;;;6.54;67.38;99398.44;5053495;28;20025;-48
2022/04/06 03:31:29;;;;;;;19.48;10.70;;;;;;;6.49;67.09;99403.44;5053891;28;20025;-48
2022/04/06 03:33:54;;;;;;;20.88;11.35;;;;;;;6.57;67.25;99416.59;5053569;28;20463;-48
2022/04/06 03:36:20;;;;;;;21.90;10.25;;;;;;;6.54;67.09;99411.66;5053241;28;20099;-48
2022/04/06 03:38:45;;;;;;;24.75;10.85;;;;;;;6.54;67.18;99412.47;5053081;28;20033;-48
2022/04/06 03:41:11;;;;;;;56.25;29.83;;;;;;;6.54;67.18;99416.94;5053023;28;20029;-47
2022/04/06 03:43:36;;;;;;;85.07;43.13;;;;;;;6.52;67.06;99411.84;5053015;28;20032;-48
2022/04/06 03:46:02;;;;;;;61.30;34.20;;;;;;;6.56;68.65;99413.09;5052316;28;20029;-52
2022/04/06 03:48:27;;;;;;;33.22;16.20;;;;;;;6.70;66.39;99411.44;5052663;28;20016;-49
2022/04/06 03:50:53;;;;;;;18.63;10.75;;;;;;;6.73;66.24;99421.63;5050401;28;20059;-37
2022/04/06 03:53:19;;;;;;;22.02;11.23;;;;;;;6.63;66.52;99413.19;5046765;28;20029;-37
2022/04/06 03:55:44;;;;;;;20.73;11.00;;;;;;;6.57;66.68;99412.09;5053093;28;20025;-37
2022/04/06 03:58:10;;;;;;;20.88;10.98;;;;;;;6.52;67.24;99414.47;5052941;28;20059;-37
2022/04/06 04:00:35;;;;;;;21.20;10.48;;;;;;;6.59;67.33;99420.66;5052985;28;20417;-38
2022/04/06 04:03:01;;;;;;;18.20;10.23;;;;;;;6.45;67.58;99429.44;5052445;28;20110;-37
2022/04/06 04:05:26;;;;;;;19.13;11.07;;;;;;;6.59;67.44;99431.25;5052518;28;20028;-37
2022/04/06 04:07:51;;;;;;;23.48;10.82;;;;;;;6.83;66.58;99437.19;5052424;28;20056;-38
2022/04/06 04:10:19;;;;;;;15.27;10.23;;;;;;;7.19;65.18;99433.72;5052462;28;20032;-37
2022/04/06 04:12:45;;;;;;;21.05;11.82;;;;;;;7.44;64.46;99439.44;5052850;28;20104;-37
2022/04/06 04:15:10;;;;;;;21.83;11.38;;;;;;;7.31;64.80;99437.50;5052779;28;20113;-37
2022/04/06 04:17:36;;;;;;;19.30;10.45;;;;;;;7.36;64.03;99429.78;5052444;28;20060;-37
2022/04/06 04:20:02;;;;;;;20.83;11.50;;;;;;;7.48;64.27;99442.53;5052539;28;20056;-37
2022/04/06 04:22:29;;;;;;;25.42;11.30;;;;;;;7.56;63.86;99445.06;5050727;28;20027;-38
2022/04/06 04:24:54;;;;;;;27.75;12.13;;;;;;;7.71;63.66;99451.09;5052108;28;20055;-37
2022/04/06 04:27:20;;;;;;;23.42;11.38;;;;;;;7.91;63.05;99455.72;5052670;28;20028;-38
2022/04/06 04:29:45;;;;;;;22.67;11.35;;;;;;;8.00;62.55;99463.31;5052307;28;20404;-37
2022/04/06 04:32:11;;;;;;;22.02;11.27;;;;;;;8.32;61.36;99465.53;5044645;28;20064;-39
2022/04/06 04:34:37;;;;;;;21.02;10.45;;;;;;;8.46;60.84;99458.53;5035871;28;20029;-38
2022/04/06 04:37:03;;;;;;;21.60;11.68;;;;;;;8.75;60.91;99471.50;5050199;28;20465;-37
2022/04/06 04:39:28;;;;;;;21.88;11.38;;;;;;;10.32;67.98;99490.69;5036525;28;20065;-37
2022/04/06 04:41:54;;;;;;;19.42;10.35;;;;;;;13.24;78.94;99490.47;5031430;28;20026;-37
2022/04/06 04:44:19;;;;;;;21.40;11.02;;;;;;;13.96;56.71;99477.06;5031356;28;20029;-38
2022/04/06 04:46:45;;;;;;;27.95;12.15;;;;;;;14.03;50.07;99488.47;5031632;28;20552;-37
2022/04/06 04:49:10;;;;;;;22.95;10.77;;;;;;;14.51;52.04;99488.41;5030836;28;20043;-38
2022/04/06 04:51:36;;;;;;;27.48;10.30;;;;;;;15.11;46.54;99489.91;5029673;28;20025;-38
2022/04/06 04:54:02;;;;;;;18.50;9.75;;;;;;;15.77;47.73;99488.44;5030000;28;20033;-38
2022/04/06 04:56:30;;;;;;;39.45;23.35;;;;;;;16.10;43.57;99488.66;5029321;28;20037;-38
2022/04/06 04:58:56;;;;;;;23.88;12.25;;;;;;;15.69;41.68;99494.19;5028424;28;20036;-38
2022/04/06 05:01:22;;;;;;;28.13;12.93;;;;;;;14.52;45.01;99498.09;5028612;28;20024;-37
2022/04/06 05:03:48;;;;;;;21.90;10.90;;;;;;;14.81;44.60;99497.13;5028382;28;20025;-37
2022/04/06 05:06:14;;;;;;;23.13;12.48;;;;;;;15.19;44.57;99493.03;5042097;28;20508;-38
2022/04/06 05:08:40;;;;;;;23.85;14.60;;;;;;;15.69;41.73;99493.34;5048252;28;20033;-38
2022/04/06 05:11:05;;;;;;;42.50;21.27;;;;;;;15.66;41.83;99497.34;5048873;28;20029;-38
2022/04/06 05:13:31;;;;;;;29.75;12.77;;;;;;;15.97;40.01;99501.38;5050465;28;20035;-37
2022/04/06 05:15:57;;;;;;;30.25;12.40;;;;;;;16.34;39.57;99497.34;5051295;28;20040;-37
2022/04/06 05:18:22;;;;;;;23.38;12.55;;;;;;;16.73;38.39;99506.16;5051110;28;20032;-38
2022/04/06 05:20:47;;;;;;;23.10;12.10;;;;;;;16.89;37.71;99492.97;5051441;28;20021;-37
2022/04/06 05:23:13;;;;;;;29.85;11.75;;;;;;;16.65;38.47;99505.78;5051281;28;20158;-38
2022/04/06 05:25:38;;;;;;;18.63;10.88;;;;;;;17.17;38.07;99508.88;5051258;28;20024;-38
2022/04/06 05:28:04;;;;;;;20.48;10.15;;;;;;;17.64;36.75;99512.00;5051342;28;20025;-38
2022/04/06 05:30:33;;;;;;;25.55;10.93;;;;;;;17.73;37.02;99516.66;5051331;28;20025;-38
2022/04/06 05:32:59;;;;;;;22.27;10.48;;;;;;;18.07;36.56;99521.00;5051659;28;20041;-39
2022/04/06 05:35:26;;;;;;;26.45;11.75;;;;;;;18.14;36.14;99521.59;5051422;28;20047;-39
2022/04/06 05:37:54;;;;;;;20.83;11.13;;;;;;;18.43;35.75;99527.44;5051365;28;20024;-38
2022/04/06 05:40:19;;;;;;;25.98;11.63;;;;;;;18.85;34.84;99528.47;5051420;28;20124;-37
2022/04/06 05:42:45;;;;;;;23.65;11.98;;;;;;;19.14;33.74;99534.25;5051221;28;20082;-39
2022/04/06 05:45:12;;;;;;;25.08;11.55;;;;;;;19.51;33.22;99531.38;5051179;28;20065;-38
2022/04/06 05:47:37;;;;;;;22.83;11.55;;;;;;;19.99;32.10;99522.25;5050227;28;20032;-39
2022/04/06 05:50:05;;;;;;;23.20;11.93;;;;;;;20.51;31.85;99523.78;5051530;28;20021;-38
2022/04/06 05:52:31;;;;;;;25.90;12.77;;;;;;;20.97;30.75;99529.06;5051353;28;20029;-38
2022/04/06 05:54:56;;;;;;;30.77;12.38;;;;;;;21.22;30.01;99527.31;5051126;28;20029;-38
2022/04/06 05:57:22;;;;;;;17.10;8.73;;;;;;;20.61;29.76;99529.19;5050591;28;20047;-37
2022/04/06 05:59:47;;;;;;;12.88;8.43;;;;;;;20.97;29.93;99530.97;5051239;28;20036;-39
2022/04/06 06:02:13;;;;;;;15.45;8.45;;;;;;;21.11;29.99;99525.75;5050906;28;20020;-38
2022/04/06 06:04:40;;;;;;;14.27;8.38;;;;;;;21.37;29.54;99529.94;5050428;28;20376;-37
2022/04/06 06:07:06;;;;;;;12.50;8.20;;;;;;;22.00;28.58;99525.72;5050499;28;20057;-38
2022/04/06 06:09:32;;;;;;;16.17;8.15;;;;;;;22.16;27.86;99524.50;5050571;28;20112;-38
2022/04/06 06:11:58;;;;;;;17.90;9.25;;;;;;;22.50;27.21;99526.31;5049316;28;20021;-38
2022/04/06 06:14:24;;;;;;;16.85;11.32;;;;;;;22.64;27.14;99521.84;5050763;28;20025;-38
2022/04/06 06:16:49;;;;;;;14.73;8.05;;;;;;;22.75;26.86;99527.97;5050313;28;20389;-38
2022/04/06 06:19:16;;;;;;;9.40;6.65;;;;;;;22.29;26.77;99523.03;5050679;28;20349;-37
2022/04/06 06:21:41;;;;;;;11.90;6.25;;;;;;;22.89;25.81;99519.91;5050629;28;20032;-37
2022/04/06 06:24:07;;;;;;;9.15;6.13;;;;;;;23.22;25.66;99526.28;5050384;28;20029;-37
2022/04/06 06:26:33;;;;;;;11.68;6.22;;;;;;;23.54;25.44;99530.19;5050988;28;20028;-37
2022/04/06 06:28:59;;;;;;;12.55;6.05;;;;;;;23.93;25.18;99528.25;5050649;28;20040;-38
2022/04/06 06:31:25;;;;;;;10.80;6.20;;;;;;;23.54;24.98;99518.53;5050901;28;20028;-38
2022/04/06 06:33:51;;;;;;;11.23;6.47;;;;;;;23.17;25.52;99525.53;5050546;28;20029;-38
2022/04/06 06:36:17;;;;;;;12.27;6.60;;;;;;;23.64;25.48;99528.41;5050307;28;20492;-38
2022/04/06 06:38:42;;;;;;;8.65;6.10;;;;;;;23.52;25.45;99534.31;5050759;28;20024;-38
2022/04/06 06:41:08;;;;;;;9.48;5.90;;;;;;;23.97;24.79;99526.53;5050513;28;20441;-37
2022/04/06 06:43:33;;;;;;;13.88;5.80;;;;;;;24.30;24.40;99535.47;5050611;28;20580;-38
2022/04/06 06:45:59;;;;;;;13.35;6.18;;;;;;;23.91;24.75;99539.44;5050307;28;20108;-37
2022/04/06 06:48:24;;;;;;;12.35;5.72;;;;;;;23.57;25.03;99537.75;5050652;28;20099;-38
2022/04/06 06:50:50;;;;;;;12.93;6.05;;;;;;;23.37;25.76;99540.75;5050052;28;20515;-37
2022/04/06 06:53:15;;;;;;;11.63;5.63;;;;;;;24.29;24.41;99533.06;5050828;28;20021;-37
2022/04/06 06:55:41;;;;;;;12.10;6.20;;;;;;;24.93;23.84;99530.50;5050558;28;20565;-36
2022/04/06 06:58:07;;;;;;;12.48;5.30;;;;;;;24.34;23.93;99536.50;5050631;28;20437;-36
2022/04/06 07:00:32;;;;;;;8.68;5.30;;;;;;;24.02;24.46;99539.25;5050347;28;20083;-37
2022/04/06 07:02:58;;;;;;;9.40;5.32;;;;;;;24.16;23.99;99543.63;5050343;28;20025;-37
2022/04/06 07:05:24;;;;;;;8.57;5.03;;;;;;;23.88;24.25;99540.00;5050089;28;20028;-38
2022/04/06 07:07:55;;;;;;;7.45;5.32;;;;;;;24.90;23.46;99537.34;5050188;28;20110;-37
2022/04/06 07:10:22;;;;;;;13.63;5.20;;;;;;;24.50;23.60;99542.47;5049921;28;20029;-37
2022/04/06 07:12:48;;;;;;;10.50;5.40;;;;;;;25.01;23.33;99531.69;5049163;28;20362;-38
2022/04/06 07:15:14;;;;;;;10.93;5.63;;;;;;;25.59;22.78;99543.75;5049626;28;20036;-37
2022/04/06 07:17:40;;;;;;;9.35;5.90;;;;;;;25.42;22.97;99541.69;5049684;28;20100;-36
2022/04/06 07:20:06;;;;;;;6.55;5.53;;;;;;;26.17;22.57;99537.47;5049957;28;20048;-37
2022/04/06 07:22:32;;;;;;;7.55;5.07;;;;;;;26.68;21.24;99549.75;5049936;28;20028;-36
2022/04/06 07:24:57;;;;;;;12.75;6.70;;;;;;;26.79;21.31;99544.00;5049841;28;20021;-36
2022/04/06 07:27:22;;;;;;;10.45;6.30;;;;;;;26.98;21.44;99546.47;5049641;28;20107;-37
2022/04/06 07:29:48;;;;;;;17.50;7.32;;;;;;;27.23;20.68;99550.38;5049936;28;20021;-37
2022/04/06 07:32:13;;;;;;;13.93;5.60;;;;;;;27.50;20.54;99557.50;5049574;28;20024;-37
2022/04/06 07:34:39;;;;;;;6.80;4.50;;;;;;;27.74;20.37;99558.94;5048970;28;20021;-36
2022/04/06 07:37:04;;;;;;;7.88;4.80;;;;;;;28.13;19.45;99548.94;5049825;28;20029;-37
2022/04/06 07:39:30;;;;;;;7.78;4.88;;;;;;;26.39;21.45;99550.25;5049750;28;20047;-37
2022/04/06 07:41:58;;;;;;;9.05;5.22;;;;;;;26.36;21.65;99552.81;5049833;28;20010;-37
2022/04/06 07:44:24;;;;;;;8.02;4.68;;;;;;;26.73;20.83;99554.25;5049343;28;20021;-38
2022/04/06 07:46:50;;;;;;;7.55;4.68;;;;;;;27.14;20.84;99539.44;5049481;28;20024;-37
2022/04/06 07:49:19;;;;;;;11.65;5.25;;;;;;;27.68;20.46;99541.91;5049496;28;20481;-39
2022/04/06 07:51:45;;;;;;;12.35;5.00;;;;;;;26.79;20.79;99542.09;5049680;28;20025;-37
2022/04/06 07:54:11;;;;;;;9.07;5.10;;;;;;;26.87;20.84;99543.25;5049134;28;20032;-38
2022/04/06 07:56:39;;;;;;;9.30;5.15;;;;;;;27.79;19.50;99543.16;5049308;28;20095;-37
2022/04/06 07:59:05;;;;;;;9.35;4.70;;;;;;;28.12;19.54;99545.41;5050075;28;20048;-37
2022/04/06 08:01:30;;;;;;;13.02;5.07;;;;;;;28.31;19.58;99546.94;5049860;28;20452;-38
2022/04/06 08:03:55;;;;;;;12.88;4.85;;;;;;;26.88;20.85;99545.66;5049558;28;20039;-38
2022/04/06 08:06:24;;;;;;;10.60;4.93;;;;;;;27.60;20.29;99545.44;5048906;28;20029;-37
2022/04/06 08:08:52;;;;;;;8.00;4.80;;;;;;;27.65;19.94;99548.81;5049537;28;20400;-38
2022/04/06 08:11:18;;;;;;;10.18;5.10;;;;;;;27.81;20.00;99545.59;5050763;28;20040;-37
2022/04/06 08:13:43;;;;;;;7.93;4.63;;;;;;;27.63;19.82;99544.81;5052773;28;20116;-37
2022/04/06 08:16:09;;;;;;;6.35;4.28;;;;;;;28.07;19.72;99548.31;5052974;28;20120;-37
2022/04/06 08:18:35;;;;;;;7.38;4.20;;;;;;;28.02;20.38;99538.34;5053010;28;20099;-37
2022/04/06 08:21:01;;;;;;;8.20;4.53;;;;;;;27.88;20.52;99534.97;5052872;28;20452;-38
2022/04/06 08:23:27;;;;;;;9.18;5.03;;;;;;;27.80;20.35;99538.53;5052744;28;20024;-38
2022/04/06 08:25:53;;;;;;;8.73;4.45;;;;;;;28.38;19.35;99525.38;5052444;28;20025;-37
2022/04/06 08:28:19;;;;;;;9.35;4.43;;;;;;;28.74;19.07;99540.53;5052678;28;20033;-37
2022/04/06 08:30:47;;;;;;;7.35;4.00;;;;;;;29.06;18.08;99533.59;5052632;28;20024;-37
2022/04/06 08:33:14;;;;;;;8.85;4.13;;;;;;;29.23;18.42;99532.69;5050026;28;20065;-38
2022/04/06 08:35:40;;;;;;;6.22;4.15;;;;;;;29.19;18.47;99527.09;5052341;28;20032;-38
2022/04/06 08:38:07;;;;;;;6.90;3.63;;;;;;;28.47;18.62;99526.13;5052101;28;20029;-36
2022/04/06 08:40:34;;;;;;;7.50;4.10;;;;;;;27.83;19.20;99527.72;5052053;28;20121;-38
2022/04/06 08:43:00;;;;;;;12.38;6.07;;;;;;;27.64;19.47;99521.81;5052084;28;20026;-37
2022/04/06 08:45:26;;;;;;;9.48;3.72;;;;;;;28.10;19.24;99527.72;5051779;28;20029;-38
2022/04/06 08:47:53;;;;;;;5.82;3.92;;;;;;;27.07;20.20;99514.53;5052569;28;20024;-38
2022/04/06 08:50:19;;;;;;;10.63;4.00;;;;;;;27.42;19.75;99520.84;5053245;28;20032;-37
2022/04/06 08:52:46;;;;;;;9.25;4.30;;;;;;;27.57;19.23;99514.13;5052605;28;20024;-38
2022/04/06 08:55:13;;;;;;;9.68;4.13;;;;;;;27.85;19.35;99513.75;5051801;28;20158;-37
2022/04/06 08:57:40;;;;;;;6.80;3.92;;;;;;;27.22;19.61;99505.06;5051424;28;20546;-36
2022/04/06 09:00:07;;;;;;;7.10;3.65;;;;;;;27.25;19.77;99497.06;5048879;28;20032;-36
2022/04/06 09:02:32;;;;;;;6.00;3.83;;;;;;;27.86;19.63;99501.69;5051414;28;20021;-37
2022/04/06 09:05:02;;;;;;;7.82;4.25;;;;;;;28.57;18.84;99503.09;5051484;28;20056;-37
2022/04/06 09:07:28;;;;;;;8.48;4.30;;;;;;;28.96;18.19;99481.91;5050964;28;20269;-37
2022/04/06 09:09:55;;;;;;;6.10;3.88;;;;;;;29.52;17.60;99477.00;5051054;28;20162;-38
2022/04/06 09:12:24;;;;;;;7.82;3.78;;;;;;;29.36;17.74;99479.56;5047281;28;20195;-39
2022/04/06 09:15:10;;;;;;;9.73;5.25;;;;;;;29.57;17.46;99479.53;5051270;28;20028;-38
2022/04/06 09:17:47;;;;;;;6.53;3.90;;;;;;;29.99;17.73;99478.66;5051287;28;20471;-39
2022/04/06 09:20:14;;;;;;;6.65;3.83;;;;;;;29.72;17.65;99471.78;5051913;28;20112;-38
2022/04/06 09:22:40;;;;;;;8.02;4.10;;;;;;;28.40;18.82;99471.91;5050453;28;20060;-37
2022/04/06 09:25:06;;;;;;;7.30;4.10;;;;;;;28.11;19.35;99461.75;5051615;28;20078;-38
2022/04/06 09:27:33;;;;;;;9.65;4.20;;;;;;;28.52;19.53;99451.28;5051231;28;20399;-36
2022/04/06 09:30:03;;;;;;;10.15;3.80;;;;;;;29.11;18.87;99461.34;5049512;28;20021;-37
2022/04/06 09:32:28;;;;;;;11.95;4.32;;;;;;;29.05;17.87;99455.28;5049880;28;20070;-40
2022/04/06 09:34:54;;;;;;;7.80;4.30;;;;;;;28.78;18.29;99443.72;5050857;28;20037;-37
2022/04/06 09:37:22;;;;;;;6.22;4.43;;;;;;;28.75;17.94;99454.53;5051271;28;20093;-39
2022/04/06 09:39:48;;;;;;;10.02;4.07;;;;;;;28.60;18.59;99440.31;5051344;28;20028;-37
2022/04/06 09:42:33;;;;;;;6.82;3.90;;;;;;;28.20;18.98;99450.78;5051062;28;20055;-38
2022/04/06 09:47:51;;;;;;;6.75;3.85;;;;;;;28.20;19.12;99428.91;5049909;28;20039;-37
2022/04/06 09:50:20;;;;;;;7.53;3.83;;;;;;;29.00;17.91;99441.81;5049969;28;20112;-38
2022/04/06 09:52:47;;;;;;;10.32;4.13;;;;;;;28.39;18.70;99432.03;5049459;28;20041;-39
2022/04/06 09:55:14;;;;;;;8.05;3.63;;;;;;;28.25;19.40;99432.25;5050142;28;20029;-38
2022/04/06 09:57:45;;;;;;;13.25;4.10;;;;;;;28.19;18.96;99425.34;5050476;28;20057;-37
2022/04/06 10:00:17;;;;;;;6.20;3.92;;;;;;;26.98;19.33;99424.44;5051004;28;20064;-37
2022/04/06 10:03:06;;;;;;;7.28;3.90;;;;;;;27.53;19.40;99420.25;5049355;28;20543;-37
2022/04/06 10:05:33;;;;;;;6.55;3.80;;;;;;;27.13;19.25;99419.59;5050868;28;20492;-37
2022/04/06 10:08:04;;;;;;;6.95;3.65;;;;;;;26.03;20.46;99420.34;5050627;28;20053;-37
2022/04/06 10:10:31;;;;;;;7.18;3.97;;;;;;;25.87;20.93;99411.72;5050888;28;20512;-38
2022/04/06 10:12:58;;;;;;;4.40;3.58;;;;;;;25.72;20.74;99402.03;5050488;28;20067;-38
2022/04/06 10:15:26;;;;;;;9.30;4.22;;;;;;;26.74;19.91;99396.81;5050452;28;20480;-38
2022/04/06 10:17:52;;;;;;;9.60;4.67;;;;;;;27.43;19.74;99396.78;5050460;28;20322;-38
2022/04/06 10:20:17;;;;;;;11.93;4.30;;;;;;;27.27;19.83;99401.16;5050644;28;20047;-36
2022/04/06 10:23:04;;;;;;;8.32;3.85;;;;;;;27.04;19.47;99395.84;5050448;28;20109;-37
2022/04/06 10:25:54;;;;;;;8.25;4.53;;;;;;;27.80;19.07;99388.19;5050252;28;20024;-36
2022/04/06 10:28:22;;;;;;;6.65;3.50;;;;;;;28.11;17.92;99381.66;5050764;28;20028;-37
2022/04/06 10:31:12;;;;;;;8.90;3.50;;;;;;;27.82;18.47;99394.13;5050661;28;20032;-37
2022/04/06 10:33:38;;;;;;;7.07;3.25;;;;;;;26.58;18.52;99385.50;5050155;28;20033;-38
2022/04/06 10:36:19;;;;;;;6.47;3.25;;;;;;;26.28;19.30;99377.91;5050078;28;20097;-37
2022/04/06 10:39:06;;;;;;;6.40;3.35;;;;;;;26.57;19.34;99381.19;5050634;28;20029;-37
2022/04/06 10:41:32;;;;;;;4.55;3.65;;;;;;;26.80;19.33;99382.66;5050224;28;20016;-36
2022/04/06 10:43:58;;;;;;;6.55;3.28;;;;;;;26.28;19.21;99374.38;5050177;28;20021;-37
2022/04/06 10:46:38;;;;;;;3.78;2.85;;;;;;;25.89;19.03;99375.97;5049806;28;20032;-38
2022/04/06 10:49:06;;;;;;;;;;;;;;;26.08;18.83;99360.22;5050524;28;20106;-38
2022/04/06 10:51:34;;;;;;;4.60;2.63;;;;;;;25.74;18.86;99358.09;5050177;28;19919;-37
2022/04/06 10:54:19;;;;;;;5.43;3.00;;;;;;;25.21;18.63;99362.47;5050266;28;20033;-37
2022/04/06 10:56:52;;;;;;;4.00;2.60;;;;;;;24.32;18.44;99361.97;5049513;28;20033;-38
2022/04/06 10:59:22;;;;;;;5.00;2.70;;;;;;;23.89;18.91;99350.63;5050139;28;20382;-38
2022/04/06 11:01:49;;;;;;;3.33;2.47;;;;;;;23.92;18.51;99358.97;5050276;28;20028;-38
2022/04/06 11:04:22;;;;;;;5.03;2.60;;;;;;;24.36;18.14;99349.38;5050011;28;20024;-38
2022/04/06 11:06:56;;;;;;;5.18;2.60;;;;;;;24.09;17.89;99347.50;5049570;28;20057;-38
2022/04/06 11:12:13;;;;;;;5.22;2.33;;;;;;;25.66;15.66;99340.59;5050240;28;20527;-37
2022/04/06 11:14:40;;;;;;;3.53;2.45;;;;;;;24.71;16.15;99340.75;5049789;28;20126;-38
2022/04/06 11:17:44;;;;;;;3.78;2.28;;;;;;;23.35;17.74;99340.16;5049460;28;20044;-38
2022/04/06 11:20:18;;;;;;;4.90;2.60;;;;;;;23.96;18.22;99335.53;5050328;28;20049;-39
2022/04/06 11:22:50;;;;;;;4.28;2.53;;;;;;;25.06;17.41;99325.53;5050085;28;20032;-37
2022/04/06 11:25:17;;;;;;;4.80;2.40;;;;;;;25.39;16.42;99325.25;5050047;28;20036;-37
2022/04/06 11:27:45;;;;;;;3.38;2.20;;;;;;;26.18;16.30;99322.84;5049676;28;20033;-37
2022/04/06 11:30:20;;;;;;;3.10;2.15;;;;;;;26.87;15.48;99322.94;5050302;28;20040;-37
2022/04/06 11:32:56;;;;;;;3.35;2.40;;;;;;;27.11;15.23;99338.81;5049779;28;20040;-37
2022/04/06 11:35:30;;;;;;;5.07;2.10;;;;;;;25.50;16.45;99314.91;5049776;28;20025;-38
2022/04/06 11:37:57;;;;;;;2.65;1.98;;;;;;;26.28;15.86;99315.19;5049841;28;20029;-38
2022/04/06 11:40:26;;;;;;;4.40;2.15;;;;;;;27.17;15.62;99314.88;5050064;28;20042;-38